Time;durP1;ratioP1;P1;durP2;ratioP2;P2;SDS_P1;SDS_P2;PMS_P1;PMS_P2;Temp;Humidity;BMP_temperature;BMP_pressure;BME280_temperature;BME280_humidity;BME280_pressure;Samples;Min_cycle;Max_cycle;Signal;HPM_P1;HPM_P2
2023/08/02 00:01:19;;;;;;;9.30;5.10;;;15.30;99.90;;;;;;5019388;28;20084;-77
2023/08/02 00:03:45;;;;;;;11.80;4.70;;;15.30;99.90;;;;;;5023540;28;20026;-74
2023/08/02 00:06:11;;;;;;;11.68;4.93;;;15.30;99.90;;;;;;5025523;28;20038;-76
2023/08/02 00:08:36;;;;;;;16.00;4.93;;;15.30;99.90;;;;;;5025251;28;20022;-73
2023/08/02 00:11:03;;;;;;;12.23;4.95;;;15.30;99.90;;;;;;5011976;28;20134;-75
2023/08/02 00:13:29;;;;;;;7.80;4.25;;;15.30;99.90;;;;;;5020499;28;20087;-75
2023/08/02 00:15:55;;;;;;;12.65;4.82;;;15.30;99.90;;;;;;5026018;28;20030;-74
2023/08/02 00:18:21;;;;;;;10.35;4.43;;;15.30;99.90;;;;;;5024934;28;20038;-75
2023/08/02 00:20:48;;;;;;;6.75;4.15;;;15.30;99.90;;;;;;5026319;28;20086;-75
2023/08/02 00:23:14;;;;;;;13.60;4.95;;;15.30;99.90;;;;;;5025250;28;20022;-76
2023/08/02 00:25:40;;;;;;;10.43;4.60;;;15.30;99.90;;;;;;5024810;28;20037;-71
2023/08/02 00:28:05;;;;;;;12.07;4.60;;;15.40;99.90;;;;;;5024857;28;20485;-74
2023/08/02 00:30:31;;;;;;;14.82;5.03;;;15.40;99.90;;;;;;5024406;28;20050;-73
2023/08/02 00:32:57;;;;;;;12.48;4.82;;;15.40;99.90;;;;;;5025693;28;20037;-76
2023/08/02 00:35:23;;;;;;;11.43;4.80;;;15.40;99.90;;;;;;5025805;28;20117;-74
2023/08/02 00:37:49;;;;;;;9.02;4.35;;;15.40;99.90;;;;;;5024337;28;20459;-74
2023/08/02 00:40:14;;;;;;;8.27;4.07;;;15.40;99.90;;;;;;5024262;28;20030;-75
2023/08/02 00:42:41;;;;;;;15.25;4.53;;;15.40;99.90;;;;;;5026145;28;20037;-74
2023/08/02 00:45:07;;;;;;;11.45;4.47;;;15.40;99.90;;;;;;5024195;28;20041;-73
2023/08/02 00:47:33;;;;;;;11.50;4.80;;;15.40;99.90;;;;;;5023884;28;20026;-77
2023/08/02 00:50:03;;;;;;;9.05;4.43;;;15.40;99.90;;;;;;5023965;28;20049;-77
2023/08/02 00:52:30;;;;;;;11.40;4.20;;;15.40;99.90;;;;;;5025006;28;20045;-75
2023/08/02 00:54:56;;;;;;;8.48;4.07;;;15.40;99.90;;;;;;5025571;28;20026;-76
2023/08/02 00:57:22;;;;;;;9.95;4.30;;;15.40;99.90;;;;;;5025527;28;20030;-73
2023/08/02 00:59:48;;;;;;;13.27;5.00;;;15.40;99.90;;;;;;5025155;28;20026;-74
2023/08/02 01:02:14;;;;;;;11.35;4.43;;;15.40;99.90;;;;;;5025529;28;20030;-77
2023/08/02 01:04:40;;;;;;;10.35;4.70;;;15.50;99.90;;;;;;5025626;28;20026;-78
2023/08/02 01:07:31;;;;;;;10.70;4.63;;;15.40;99.90;;;;;;5025373;28;20105;-77
2023/08/02 01:10:12;;;;;;;12.13;4.85;;;15.40;99.90;;;;;;5026160;28;20026;-79
2023/08/02 01:12:43;;;;;;;8.00;4.32;;;15.40;99.90;;;;;;5024729;28;20038;-74
2023/08/02 01:15:10;;;;;;;11.85;4.80;;;15.40;99.90;;;;;;5025558;28;20030;-74
2023/08/02 01:17:36;;;;;;;13.07;4.97;;;15.40;99.90;;;;;;5023937;28;20036;-74
2023/08/02 01:20:03;;;;;;;10.20;5.13;;;15.50;99.90;;;;;;5024766;28;20029;-77
2023/08/02 01:22:29;;;;;;;10.85;4.63;;;15.50;99.90;;;;;;5025082;28;20029;-74
2023/08/02 01:24:56;;;;;;;10.55;5.25;;;15.50;99.90;;;;;;5023919;28;20026;-75
2023/08/02 01:27:25;;;;;;;8.98;4.68;;;15.50;99.90;;;;;;5023611;28;20064;-75
2023/08/02 01:29:53;;;;;;;12.55;4.95;;;15.40;99.90;;;;;;5024758;28;20053;-76
2023/08/02 01:32:21;;;;;;;10.27;4.65;;;15.50;99.90;;;;;;5024985;28;20025;-73
2023/08/02 01:34:48;;;;;;;10.73;5.00;;;15.50;99.90;;;;;;5023924;28;20069;-75
2023/08/02 01:37:14;;;;;;;12.65;5.43;;;15.40;99.90;;;;;;5025026;28;20037;-76
2023/08/02 01:39:40;;;;;;;10.98;5.22;;;15.50;99.90;;;;;;5023650;28;20072;-77
2023/08/02 01:42:05;;;;;;;13.30;5.43;;;15.50;99.90;;;;;;5024502;28;20026;-75
2023/08/02 01:44:31;;;;;;;11.90;5.68;;;15.50;99.90;;;;;;5024726;28;20036;-74
2023/08/02 01:47:03;;;;;;;12.32;5.72;;;15.40;99.90;;;;;;5023133;28;20038;-76
2023/08/02 01:49:28;;;;;;;9.98;5.65;;;15.50;99.90;;;;;;5023161;28;20030;-76
2023/08/02 01:51:54;;;;;;;11.90;5.90;;;15.50;99.90;;;;;;5023045;28;20403;-75
2023/08/02 01:54:20;;;;;;;11.25;5.60;;;15.50;99.90;;;;;;5023252;28;20025;-74
2023/08/02 01:56:46;;;;;;;12.70;5.70;;;15.40;99.90;;;;;;5024428;28;20360;-77
2023/08/02 01:59:12;;;;;;;10.35;5.55;;;15.40;99.90;;;;;;5023042;28;20442;-74
2023/08/02 02:01:38;;;;;;;15.13;6.03;;;15.50;99.90;;;;;;5022725;28;20105;-74
2023/08/02 02:04:04;;;;;;;12.07;5.72;;;15.50;99.90;;;;;;5024056;28;20049;-73
2023/08/02 02:06:29;;;;;;;12.32;5.40;;;15.40;99.90;;;;;;5023150;28;20096;-74
2023/08/02 02:08:56;;;;;;;10.88;5.63;;;15.40;99.90;;;;;;5024465;28;20022;-74
2023/08/02 02:11:22;;;;;;;13.88;5.80;;;15.40;99.90;;;;;;5023592;28;20092;-74
2023/08/02 02:13:49;;;;;;;14.43;5.63;;;15.40;99.90;;;;;;5024238;28;20026;-76
2023/08/02 02:16:15;;;;;;;12.75;6.63;;;15.40;99.90;;;;;;5022772;28;20026;-75
2023/08/02 02:18:40;;;;;;;14.10;6.20;;;15.40;99.90;;;;;;5024167;28;20040;-76
2023/08/02 02:21:06;;;;;;;14.75;6.20;;;15.40;99.90;;;;;;5024420;28;20428;-75
2023/08/02 02:23:32;;;;;;;20.17;5.60;;;15.40;99.90;;;;;;5023860;28;20026;-75
2023/08/02 02:25:57;;;;;;;13.57;5.97;;;15.40;99.90;;;;;;5022647;28;20022;-78
2023/08/02 02:28:23;;;;;;;17.65;5.88;;;15.40;99.90;;;;;;5024283;28;20098;-73
2023/08/02 02:30:49;;;;;;;12.68;5.50;;;15.40;99.90;;;;;;5023650;28;20049;-77
2023/08/02 02:33:15;;;;;;;14.15;5.70;;;15.40;99.90;;;;;;5022908;28;20036;-77
2023/08/02 02:35:41;;;;;;;16.65;5.95;;;15.40;99.90;;;;;;5022743;28;20030;-76
2023/08/02 02:38:06;;;;;;;10.05;5.53;;;15.40;99.90;;;;;;5022896;28;20089;-77
2023/08/02 02:40:32;;;;;;;10.13;5.18;;;15.40;99.90;;;;;;5022659;28;20030;-73
2023/08/02 02:43:01;;;;;;;9.68;5.28;;;15.40;99.90;;;;;;5024117;28;20026;-74
2023/08/02 02:45:27;;;;;;;10.15;4.68;;;15.40;99.90;;;;;;5023657;28;20089;-76
2023/08/02 02:47:52;;;;;;;10.73;5.32;;;15.40;99.90;;;;;;5025718;28;20022;-77
2023/08/02 02:50:18;;;;;;;8.75;4.97;;;15.40;99.90;;;;;;5028060;28;20037;-76
2023/08/02 02:52:44;;;;;;;16.48;4.60;;;15.40;99.90;;;;;;5027734;28;20451;-77
2023/08/02 02:55:09;;;;;;;12.88;5.80;;;15.30;99.90;;;;;;5027957;28;20034;-77
2023/08/02 02:57:35;;;;;;;11.25;5.25;;;15.40;99.90;;;;;;5027662;28;20388;-76
2023/08/02 03:00:01;;;;;;;13.93;5.40;;;15.40;99.90;;;;;;5025961;28;20049;-75
2023/08/02 03:02:26;;;;;;;10.65;5.25;;;15.40;99.90;;;;;;5026088;28;20467;-74
2023/08/02 03:04:52;;;;;;;10.90;5.30;;;15.40;99.90;;;;;;5027363;28;20064;-76
2023/08/02 03:07:17;;;;;;;11.05;5.10;;;15.40;99.90;;;;;;5027343;28;20092;-74
2023/08/02 03:09:43;;;;;;;8.43;4.97;;;15.40;99.90;;;;;;5026234;28;20021;-78
2023/08/02 03:12:09;;;;;;;14.77;5.60;;;15.40;99.90;;;;;;5026233;28;20117;-76
2023/08/02 03:14:34;;;;;;;14.20;5.25;;;15.30;99.90;;;;;;5027045;28;20022;-75
2023/08/02 03:17:00;;;;;;;12.80;5.28;;;15.40;99.90;;;;;;5025966;28;20030;-75
2023/08/02 03:19:26;;;;;;;12.73;5.20;;;15.40;99.90;;;;;;5026000;28;20033;-77
2023/08/02 03:21:51;;;;;;;12.98;5.50;;;15.40;99.90;;;;;;5025569;28;20056;-76
2023/08/02 03:24:17;;;;;;;11.65;5.03;;;15.40;99.90;;;;;;5027096;28;20030;-76
2023/08/02 03:26:43;;;;;;;8.63;4.82;;;15.30;99.90;;;;;;5027367;28;20025;-79
2023/08/02 03:29:09;;;;;;;12.50;4.85;;;15.30;99.90;;;;;;5025833;28;20044;-77
2023/08/02 03:31:34;;;;;;;11.20;4.95;;;15.30;99.90;;;;;;5025789;28;20042;-77
2023/08/02 03:34:00;;;;;;;10.50;4.75;;;15.30;99.90;;;;;;5025823;28;20034;-78
2023/08/02 03:36:25;;;;;;;12.20;4.80;;;15.30;99.90;;;;;;5026658;28;20085;-78
2023/08/02 03:38:51;;;;;;;10.15;4.78;;;15.30;99.90;;;;;;5025785;28;20030;-77
2023/08/02 03:41:16;;;;;;;14.00;4.63;;;15.30;99.90;;;;;;5025503;28;20030;-79
2023/08/02 03:43:42;;;;;;;11.63;4.50;;;15.30;99.90;;;;;;5024912;28;20030;-79
2023/08/02 03:46:08;;;;;;;10.10;4.70;;;15.30;99.90;;;;;;5025944;28;20029;-75
2023/08/02 03:48:33;;;;;;;15.80;5.05;;;15.30;99.90;;;;;;5025530;28;20034;-74
2023/08/02 03:50:59;;;;;;;13.55;5.28;;;15.30;99.90;;;;;;5025121;28;20064;-78
2023/08/02 03:53:30;;;;;;;11.65;4.97;;;15.30;99.90;;;;;;5025306;28;20073;-76
2023/08/02 03:55:56;;;;;;;12.88;4.90;;;15.40;99.90;;;;;;5025159;28;20099;-78
2023/08/02 03:58:21;;;;;;;13.25;5.18;;;15.30;99.90;;;;;;5024937;28;20823;-77
2023/08/02 04:00:47;;;;;;;16.60;5.50;;;15.30;99.90;;;;;;5026665;28;20033;-77
2023/08/02 04:03:13;;;;;;;12.88;5.43;;;15.30;99.90;;;;;;5026493;28;20038;-77
2023/08/02 04:05:39;;;;;;;14.75;5.40;;;15.30;99.90;;;;;;5025173;28;20052;-77
2023/08/02 04:08:05;;;;;;;11.02;5.20;;;15.30;99.90;;;;;;5026451;28;20029;-77
2023/08/02 04:10:34;;;;;;;18.73;6.10;;;15.30;99.90;;;;;;5024465;28;20144;-77
2023/08/02 04:13:00;;;;;;;14.30;5.38;;;15.30;99.90;;;;;;5024946;28;20030;-76
2023/08/02 04:15:25;;;;;;;20.17;6.15;;;15.30;99.90;;;;;;5024932;28;20025;-72
2023/08/02 04:17:51;;;;;;;17.92;6.22;;;15.30;99.90;;;;;;5024658;28;20041;-76
2023/08/02 04:20:17;;;;;;;13.93;5.90;;;15.30;99.90;;;;;;5024892;28;20391;-76
2023/08/02 04:22:43;;;;;;;18.88;6.60;;;15.30;99.90;;;;;;5024937;28;20037;-76
2023/08/02 04:25:09;;;;;;;20.27;6.03;;;15.30;99.90;;;;;;5025747;28;20026;-77
2023/08/02 04:27:34;;;;;;;19.10;6.07;;;15.30;99.90;;;;;;5025788;28;20026;-72
2023/08/02 04:30:00;;;;;;;16.38;6.00;;;15.30;99.90;;;;;;5026006;28;20435;-77
2023/08/02 04:32:25;;;;;;;17.35;5.82;;;15.30;99.90;;;;;;5025588;28;20105;-76
2023/08/02 04:34:51;;;;;;;17.20;6.45;;;15.30;99.90;;;;;;5025971;28;20030;-78
2023/08/02 04:37:17;;;;;;;18.27;6.30;;;15.30;99.90;;;;;;5024782;28;20026;-78
2023/08/02 04:39:46;;;;;;;21.52;6.70;;;15.30;99.90;;;;;;5025882;28;20371;-78
2023/08/02 04:42:12;;;;;;;24.88;6.85;;;15.40;99.90;;;;;;5024630;28;20058;-78
2023/08/02 04:44:37;;;;;;;23.38;6.75;;;15.40;99.90;;;;;;5021090;28;20033;-77
2023/08/02 04:47:03;;;;;;;25.35;7.22;;;15.40;99.90;;;;;;5025324;28;20133;-74
2023/08/02 04:49:29;;;;;;;25.02;7.20;;;15.50;99.90;;;;;;5025740;28;20091;-74
2023/08/02 04:51:54;;;;;;;14.00;6.75;;;15.50;99.90;;;;;;5024960;28;20049;-74
2023/08/02 04:54:20;;;;;;;19.38;7.10;;;15.50;99.90;;;;;;5025094;28;20065;-72
2023/08/02 04:56:46;;;;;;;18.38;6.97;;;15.50;99.90;;;;;;5024584;28;20026;-71
2023/08/02 04:59:13;;;;;;;20.13;6.68;;;15.50;99.90;;;;;;5025124;28;20033;-72
2023/08/02 05:01:39;;;;;;;18.67;6.97;;;15.60;99.90;;;;;;5025702;28;20087;-70
2023/08/02 05:04:07;;;;;;;18.83;7.63;;;15.70;99.90;;;;;;5025585;28;20026;-70
2023/08/02 05:06:34;;;;;;;18.02;6.57;;;15.70;99.90;;;;;;5024931;28;20168;-72
2023/08/02 05:09:04;;;;;;;24.98;7.15;;;15.70;99.90;;;;;;5024468;28;20086;-70
2023/08/02 05:11:29;;;;;;;18.77;6.88;;;15.80;99.90;;;;;;5024657;28;20038;-70
2023/08/02 05:13:55;;;;;;;18.02;6.60;;;15.80;99.90;;;;;;5023516;28;20022;-70
2023/08/02 05:16:21;;;;;;;14.10;5.88;;;15.80;99.90;;;;;;5013212;28;20221;-70
2023/08/02 05:18:46;;;;;;;21.08;6.20;;;15.90;99.90;;;;;;5010620;28;20039;-69
2023/08/02 05:21:18;;;;;;;16.23;6.20;;;15.80;99.90;;;;;;5005163;28;20027;-70
2023/08/02 05:23:44;;;;;;;18.75;6.75;;;15.80;99.90;;;;;;5010833;28;20037;-69
2023/08/02 05:26:10;;;;;;;21.45;6.88;;;15.80;99.90;;;;;;5024639;28;20104;-72
2023/08/02 05:28:37;;;;;;;23.77;6.57;;;15.80;99.90;;;;;;5025066;28;20040;-71
2023/08/02 05:31:03;;;;;;;19.25;6.80;;;15.80;99.90;;;;;;5025212;28;20033;-70
2023/08/02 05:33:28;;;;;;;18.95;6.45;;;15.80;99.90;;;;;;5024726;28;20057;-70
2023/08/02 05:35:54;;;;;;;18.98;6.80;;;15.80;99.90;;;;;;5024863;28;20022;-70
2023/08/02 05:38:20;;;;;;;20.63;6.57;;;15.80;99.90;;;;;;5023459;28;20041;-69
2023/08/02 05:40:46;;;;;;;14.75;5.80;;;15.80;99.90;;;;;;5024274;28;20033;-71
2023/08/02 05:43:12;;;;;;;20.13;6.10;;;15.80;99.90;;;;;;5020675;28;20046;-71
2023/08/02 05:45:37;;;;;;;16.45;6.05;;;15.80;99.90;;;;;;5024876;28;20483;-71
2023/08/02 05:48:03;;;;;;;14.77;6.47;;;15.80;99.90;;;;;;5024479;28;20034;-70
2023/08/02 05:50:29;;;;;;;16.08;5.95;;;15.80;99.90;;;;;;5023001;28;20084;-71
2023/08/02 05:52:55;;;;;;;18.65;6.10;;;15.80;99.90;;;;;;5023013;28;20045;-71
2023/08/02 05:55:21;;;;;;;18.27;6.88;;;15.90;99.90;;;;;;5022770;28;20036;-72
2023/08/02 05:57:48;;;;;;;18.40;6.13;;;15.90;99.90;;;;;;5024253;28;20080;-72
2023/08/02 06:00:14;;;;;;;17.15;6.32;;;15.90;99.90;;;;;;5024161;28;20018;-71
2023/08/02 06:02:40;;;;;;;19.67;6.78;;;15.90;99.90;;;;;;5024625;28;20033;-71
2023/08/02 06:05:06;;;;;;;13.13;5.55;;;16.00;99.90;;;;;;5024183;28;20030;-70
2023/08/02 06:07:32;;;;;;;18.83;6.07;;;16.00;99.90;;;;;;5023285;28;20092;-70
2023/08/02 06:09:57;;;;;;;21.42;7.45;;;16.00;99.90;;;;;;5024232;28;20040;-69
2023/08/02 06:12:23;;;;;;;14.30;6.25;;;16.00;99.90;;;;;;5024738;28;20101;-69
2023/08/02 06:14:48;;;;;;;19.73;6.63;;;16.00;99.90;;;;;;5024082;28;20041;-71
2023/08/02 06:17:15;;;;;;;23.17;6.65;;;16.10;99.90;;;;;;5023313;28;20033;-71
2023/08/02 06:19:41;;;;;;;19.13;6.93;;;16.10;99.90;;;;;;5024932;28;20056;-69
2023/08/02 06:22:07;;;;;;;20.65;6.28;;;16.10;99.90;;;;;;5028723;28;20029;-72
2023/08/02 06:24:33;;;;;;;13.50;6.22;;;16.10;99.90;;;;;;5025829;28;20249;-70
2023/08/02 06:27:10;;;;;;;20.25;7.00;;;16.10;99.90;;;;;;5010804;28;20027;-70
2023/08/02 06:29:36;;;;;;;19.42;7.85;;;16.20;99.90;;;;;;5011011;28;20092;-72
2023/08/02 06:32:01;;;;;;;18.88;7.05;;;16.20;99.90;;;;;;5011471;28;20582;-71
2023/08/02 06:34:27;;;;;;;24.10;7.63;;;16.30;99.90;;;;;;5010957;28;20027;-68
2023/08/02 06:36:52;;;;;;;23.20;8.55;;;16.30;99.90;;;;;;5011144;28;20077;-69
2023/08/02 06:39:18;;;;;;;21.63;8.70;;;16.40;99.90;;;;;;5011373;28;20496;-72
2023/08/02 06:41:44;;;;;;;20.95;7.80;;;16.40;99.90;;;;;;5011046;28;20034;-70
2023/08/02 06:44:09;;;;;;;24.83;8.65;;;16.50;99.90;;;;;;5019018;28;20467;-72
2023/08/02 06:46:35;;;;;;;24.13;8.88;;;16.60;99.90;;;;;;5016791;28;20053;-69
2023/08/02 06:49:01;;;;;;;23.88;8.50;;;16.60;99.90;;;;;;5028896;28;20080;-71
2023/08/02 06:51:26;;;;;;;19.33;7.40;;;16.60;99.90;;;;;;5028602;28;20046;-68
2023/08/02 06:53:52;;;;;;;23.88;8.32;;;16.60;99.90;;;;;;5026350;28;20037;-70
2023/08/02 06:56:18;;;;;;;17.50;7.82;;;16.60;99.90;;;;;;5027195;28;20036;-69
2023/08/02 06:58:45;;;;;;;17.95;6.65;;;16.60;99.90;;;;;;5029504;28;20123;-72
2023/08/02 07:01:20;;;;;;;19.45;7.63;;;16.60;99.90;;;;;;5030760;28;20029;-71
2023/08/02 07:03:47;;;;;;;19.98;7.43;;;16.60;99.90;;;;;;5026306;28;20033;-71
2023/08/02 07:06:18;;;;;;;16.88;6.72;;;16.70;99.90;;;;;;5030828;28;20021;-72
2023/08/02 07:08:45;;;;;;;15.63;7.20;;;16.70;99.90;;;;;;5029370;28;20029;-70
2023/08/02 07:11:11;;;;;;;19.27;6.95;;;16.70;99.90;;;;;;5029828;28;20042;-68
2023/08/02 07:13:37;;;;;;;19.17;6.78;;;16.80;99.90;;;;;;5030102;28;20119;-69
2023/08/02 07:16:04;;;;;;;16.02;5.72;;;16.80;99.90;;;;;;5025609;28;20033;-70
2023/08/02 07:18:30;;;;;;;22.30;6.40;;;16.90;99.90;;;;;;5022475;28;20026;-68
2023/08/02 07:20:56;;;;;;;16.17;6.13;;;16.90;99.90;;;;;;5028951;28;20086;-68
2023/08/02 07:23:22;;;;;;;10.57;5.10;;;16.90;99.90;;;;;;5012521;28;20038;-72
2023/08/02 07:25:48;;;;;;;17.75;5.70;;;16.90;99.90;;;;;;5029943;28;20022;-69
2023/08/02 07:28:14;;;;;;;16.90;6.00;;;16.90;99.90;;;;;;5030099;28;20037;-69
2023/08/02 07:30:39;;;;;;;13.73;5.13;;;17.00;99.90;;;;;;5030332;28;20042;-69
2023/08/02 07:33:05;;;;;;;12.30;5.35;;;17.00;99.90;;;;;;5028461;28;20541;-67
2023/08/02 07:35:36;;;;;;;17.63;6.05;;;17.00;99.90;;;;;;5007145;28;20022;-69
2023/08/02 07:38:02;;;;;;;14.15;5.80;;;17.00;99.90;;;;;;5007000;28;20098;-70
2023/08/02 07:40:28;;;;;;;14.35;5.35;;;17.00;99.90;;;;;;5013128;28;20040;-70
2023/08/02 07:42:54;;;;;;;12.90;5.97;;;17.10;99.90;;;;;;5026044;28;20694;-68
2023/08/02 07:45:20;;;;;;;13.32;5.68;;;17.10;99.90;;;;;;5019236;28;20029;-71
2023/08/02 07:47:46;;;;;;;19.48;5.78;;;17.20;99.90;;;;;;5017908;28;20069;-69
2023/08/02 07:50:12;;;;;;;15.55;5.32;;;17.20;99.90;;;;;;5020763;28;20090;-68
2023/08/02 07:52:38;;;;;;;14.27;5.50;;;17.20;99.90;;;;;;5013503;28;20411;-71
2023/08/02 07:55:03;;;;;;;16.15;6.13;;;17.20;99.90;;;;;;5017326;28;20030;-71
2023/08/02 07:57:33;;;;;;;12.32;5.45;;;17.20;99.90;;;;;;5014446;28;20046;-70
2023/08/02 08:00:00;;;;;;;17.25;5.18;;;17.30;99.90;;;;;;5018966;28;20577;-71
2023/08/02 08:02:26;;;;;;;14.60;5.38;;;17.30;99.90;;;;;;5025677;28;20029;-71
2023/08/02 08:04:52;;;;;;;15.05;6.25;;;17.30;99.90;;;;;;5024362;28;20425;-68
2023/08/02 08:07:18;;;;;;;15.68;6.05;;;17.40;99.90;;;;;;5026823;28;20430;-72
2023/08/02 08:09:43;;;;;;;14.00;5.88;;;17.40;99.90;;;;;;5025024;28;20033;-71
2023/08/02 08:12:09;;;;;;;16.73;6.43;;;17.40;99.90;;;;;;5029226;28;20073;-70
2023/08/02 08:14:36;;;;;;;18.33;6.88;;;17.40;99.90;;;;;;5017086;28;20030;-72
2023/08/02 08:17:02;;;;;;;16.67;6.78;;;17.40;99.90;;;;;;5019014;28;20032;-70
2023/08/02 08:19:28;;;;;;;12.95;6.30;;;17.40;99.90;;;;;;5023371;28;20599;-70
2023/08/02 08:21:53;;;;;;;18.92;6.80;;;17.50;99.90;;;;;;5026378;28;20049;-72
2023/08/02 08:24:19;;;;;;;16.40;7.28;;;17.50;99.90;;;;;;5015162;28;20026;-70
2023/08/02 08:26:45;;;;;;;16.25;6.30;;;17.50;99.90;;;;;;5026472;28;20494;-70
2023/08/02 08:29:11;;;;;;;13.57;5.55;;;17.60;99.90;;;;;;5025945;28;20053;-71
2023/08/02 08:31:36;;;;;;;12.15;5.30;;;17.60;99.90;;;;;;5021052;28;20085;-70
2023/08/02 08:34:02;;;;;;;13.27;5.25;;;17.60;99.90;;;;;;5022595;28;20865;-70
2023/08/02 08:36:31;;;;;;;10.75;5.00;;;17.60;99.90;;;;;;5016327;28;20056;-70
2023/08/02 08:38:57;;;;;;;14.98;5.50;;;17.60;99.90;;;;;;5015418;28;20525;-70
2023/08/02 08:41:23;;;;;;;12.05;5.10;;;17.50;99.90;;;;;;5022004;28;20033;-69
2023/08/02 08:43:49;;;;;;;12.38;5.15;;;17.50;99.90;;;;;;5022275;28;20026;-70
2023/08/02 08:46:15;;;;;;;15.45;5.20;;;17.40;99.90;;;;;;5025008;28;20056;-72
2023/08/02 08:48:41;;;;;;;13.60;6.30;;;17.30;99.90;;;;;;5023606;28;20056;-71
2023/08/02 08:51:10;;;;;;;13.80;6.00;;;17.30;99.90;;;;;;5024582;28;20042;-70
2023/08/02 08:53:39;;;;;;;12.05;5.75;;;17.20;99.90;;;;;;5026249;28;20025;-71
2023/08/02 08:56:04;;;;;;;10.18;5.18;;;17.10;99.90;;;;;;5020222;28;20022;-70
2023/08/02 08:58:34;;;;;;;11.40;5.28;;;17.10;99.90;;;;;;5016288;28;20065;-71
2023/08/02 09:01:03;;;;;;;17.38;5.03;;;17.10;99.90;;;;;;5013075;28;20076;-69
2023/08/02 09:03:29;;;;;;;10.15;4.25;;;17.10;99.90;;;;;;5026357;28;20030;-70
2023/08/02 09:05:58;;;;;;;14.63;5.03;;;17.10;99.90;;;;;;5025755;28;20110;-70
2023/08/02 09:08:24;;;;;;;13.65;4.75;;;17.10;99.90;;;;;;5018230;28;20028;-71
2023/08/02 09:10:49;;;;;;;10.52;4.50;;;17.20;99.90;;;;;;5022524;28;20038;-71
2023/08/02 09:13:26;;;;;;;16.52;4.90;;;17.20;99.90;;;;;;5023757;28;20060;-72
2023/08/02 09:16:04;;;;;;;14.57;4.68;;;17.20;99.90;;;;;;5020306;28;20064;-71
2023/08/02 09:18:40;;;;;;;10.25;4.45;;;17.20;99.90;;;;;;5012067;28;20038;-70
2023/08/02 09:21:07;;;;;;;10.82;4.65;;;17.20;99.90;;;;;;5020067;28;20030;-70
2023/08/02 09:23:33;;;;;;;7.63;4.40;;;17.20;99.90;;;;;;5023102;28;20124;-71
2023/08/02 09:26:19;;;;;;;13.48;4.90;;;17.20;99.90;;;;;;5024647;28;20088;-71
2023/08/02 09:29:07;;;;;;;6.95;3.90;;;17.20;99.90;;;;;;5017258;28;20037;-72
2023/08/02 09:31:35;;;;;;;11.80;4.43;;;17.20;99.90;;;;;;5018148;28;20112;-71
2023/08/02 09:34:01;;;;;;;10.13;4.30;;;17.20;99.90;;;;;;5016405;28;20038;-69
2023/08/02 09:36:27;;;;;;;10.70;3.83;;;17.20;99.90;;;;;;5016355;28;20089;-72
2023/08/02 09:39:01;;;;;;;13.38;4.10;;;17.20;99.90;;;;;;5022877;28;20060;-71
2023/08/02 09:41:28;;;;;;;10.23;4.93;;;17.20;99.90;;;;;;5025027;28;20025;-70
2023/08/02 09:43:55;;;;;;;9.85;3.95;;;17.10;99.90;;;;;;5023344;28;20041;-70
2023/08/02 09:46:28;;;;;;;13.63;4.70;;;17.10;99.90;;;;;;5024421;28;20036;-71
2023/08/02 09:49:01;;;;;;;9.40;4.82;;;17.00;99.90;;;;;;5024722;28;20032;-67
2023/08/02 09:51:43;;;;;;;9.43;4.45;;;17.00;99.90;;;;;;5024546;28;20054;-69
2023/08/02 09:54:10;;;;;;;12.98;4.32;;;17.00;99.90;;;;;;5024620;28;20038;-71
2023/08/02 09:56:37;;;;;;;11.90;4.57;;;16.90;99.90;;;;;;5023089;28;20040;-70
2023/08/02 09:59:05;;;;;;;13.15;5.28;;;16.90;99.90;;;;;;5020889;28;20056;-71
2023/08/02 10:01:35;;;;;;;8.93;5.10;;;16.80;99.90;;;;;;5005963;28;20031;-72
2023/08/02 10:04:09;;;;;;;12.38;5.20;;;16.80;99.90;;;;;;5020439;28;20080;-70
2023/08/02 10:06:42;;;;;;;11.67;4.60;;;16.80;99.90;;;;;;5024037;28;20081;-71
2023/08/02 10:09:10;;;;;;;11.80;5.00;;;16.80;99.90;;;;;;5023509;28;20409;-72
2023/08/02 10:11:46;;;;;;;14.90;5.35;;;16.80;99.90;;;;;;5020253;28;20042;-74
2023/08/02 10:14:13;;;;;;;15.00;5.72;;;16.80;99.90;;;;;;5017781;28;20105;-68
2023/08/02 10:16:40;;;;;;;13.10;6.13;;;16.80;99.90;;;;;;5018741;28;20054;-72
2023/08/02 10:19:07;;;;;;;12.15;5.90;;;16.80;99.90;;;;;;5016731;28;20023;-72
2023/08/02 10:21:34;;;;;;;10.55;6.13;;;16.80;99.90;;;;;;5017307;28;20022;-70
2023/08/02 10:24:00;;;;;;;10.75;5.75;;;16.80;99.90;;;;;;5021139;28;20034;-71
2023/08/02 10:26:29;;;;;;;13.45;6.65;;;16.90;99.90;;;;;;5022271;28;20037;-70
2023/08/02 10:28:56;;;;;;;11.98;6.03;;;17.00;99.90;;;;;;5023426;28;20026;-68
2023/08/02 10:31:22;;;;;;;13.65;6.63;;;17.10;99.90;;;;;;5022187;28;20041;-70
2023/08/02 10:33:47;;;;;;;10.95;5.53;;;17.20;99.90;;;;;;5003561;28;20034;-69
2023/08/02 10:36:13;;;;;;;12.80;4.95;;;17.20;99.90;;;;;;5005354;28;20054;-70
2023/08/02 10:38:39;;;;;;;10.70;5.43;;;17.20;99.90;;;;;;5024553;28;20018;-73
2023/08/02 10:41:07;;;;;;;13.18;5.80;;;17.20;99.90;;;;;;5023784;28;20030;-72
2023/08/02 10:43:33;;;;;;;10.68;4.93;;;17.20;99.90;;;;;;5017584;28;20590;-72
2023/08/02 10:46:33;;;;;;;9.48;5.00;;;17.20;99.90;;;;;;5024139;28;20033;-69
2023/08/02 10:49:10;;;;;;;11.80;5.47;;;17.20;99.90;;;;;;4992967;28;20050;-71
2023/08/02 10:51:37;;;;;;;10.57;5.38;;;17.10;99.90;;;;;;5024152;28;20399;-72
2023/08/02 10:54:25;;;;;;;13.73;5.15;;;17.10;99.90;;;;;;5024098;28;20049;-72
2023/08/02 10:56:58;;;;;;;8.63;5.00;;;17.00;99.90;;;;;;5022248;28;20030;-73
2023/08/02 10:59:25;;;;;;;8.43;4.93;;;17.00;99.90;;;;;;5021935;28;20045;-72
2023/08/02 11:01:57;;;;;;;13.07;5.25;;;17.00;99.90;;;;;;5005276;28;20053;-73
2023/08/02 11:04:24;;;;;;;9.93;5.13;;;17.00;99.90;;;;;;5009534;28;20041;-71
2023/08/02 11:06:50;;;;;;;11.45;5.45;;;17.00;99.90;;;;;;5017809;28;20506;-73
2023/08/02 11:09:16;;;;;;;12.48;5.00;;;17.00;99.90;;;;;;5006383;28;20034;-71
2023/08/02 11:11:41;;;;;;;12.50;5.63;;;16.90;99.90;;;;;;5006606;28;20050;-72
2023/08/02 11:14:07;;;;;;;13.15;5.65;;;16.90;99.90;;;;;;5006828;28;20034;-74
2023/08/02 11:16:43;;;;;;;11.07;5.03;;;16.80;99.90;;;;;;5006188;28;20033;-75
2023/08/02 11:19:09;;;;;;;14.13;5.18;;;16.80;99.90;;;;;;5007957;28;20026;-74
2023/08/02 11:21:36;;;;;;;14.60;5.55;;;16.70;99.90;;;;;;5011262;28;20030;-71
2023/08/02 11:24:02;;;;;;;11.60;6.25;;;16.70;99.90;;;;;;5013753;28;20076;-71
2023/08/02 11:26:27;;;;;;;13.35;5.53;;;16.70;99.90;;;;;;5007638;28;20054;-74
2023/08/02 11:28:54;;;;;;;12.68;6.22;;;16.70;99.90;;;;;;5014972;28;20026;-70
2023/08/02 11:31:28;;;;;;;11.57;5.65;;;16.70;99.90;;;;;;5012638;28;20129;-74
2023/08/02 11:33:54;;;;;;;12.55;6.85;;;16.70;99.90;;;;;;5013646;28;20018;-74
2023/08/02 11:36:20;;;;;;;13.05;6.00;;;16.80;99.90;;;;;;5025425;28;20064;-72
2023/08/02 11:38:45;;;;;;;13.45;6.15;;;16.80;99.90;;;;;;5024147;28;20033;-73
2023/08/02 11:41:20;;;;;;;18.15;6.15;;;16.80;99.90;;;;;;5022671;28;20391;-75
2023/08/02 11:43:47;;;;;;;10.13;5.97;;;16.80;99.90;;;;;;5018614;28;20105;-75
2023/08/02 11:46:25;;;;;;;11.00;6.43;;;16.80;99.90;;;;;;5024805;28;20044;-72
2023/08/02 11:48:52;;;;;;;14.13;6.28;;;16.80;99.90;;;;;;5026811;28;20060;-73
2023/08/02 11:51:20;;;;;;;11.20;6.45;;;16.70;99.90;;;;;;5009239;28;20038;-73
2023/08/02 11:53:55;;;;;;;13.75;6.38;;;16.70;99.90;;;;;;5006230;28;20102;-72
2023/08/02 11:56:22;;;;;;;12.35;6.05;;;16.70;99.90;;;;;;5006969;28;20030;-73
2023/08/02 11:58:49;;;;;;;9.85;6.18;;;16.80;99.90;;;;;;5006669;28;20034;-72
2023/08/02 12:01:16;;;;;;;13.05;6.65;;;16.80;99.90;;;;;;5012157;28;20399;-72
2023/08/02 12:04:05;;;;;;;12.00;6.57;;;16.80;99.90;;;;;;5016415;28;20097;-74
2023/08/02 12:06:53;;;;;;;14.23;6.97;;;16.80;99.90;;;;;;5005601;28;20092;-71
2023/08/02 12:09:36;;;;;;;12.23;6.55;;;16.80;99.90;;;;;;5005840;28;20065;-72
2023/08/02 12:12:02;;;;;;;13.95;6.75;;;16.80;99.90;;;;;;5014181;28;20049;-74
2023/08/02 12:14:28;;;;;;;15.23;7.20;;;16.80;99.90;;;;;;5018386;28;20021;-73
2023/08/02 12:16:54;;;;;;;10.20;6.13;;;16.70;99.90;;;;;;5025000;28;20034;-74
2023/08/02 12:19:35;;;;;;;14.13;7.22;;;16.80;99.90;;;;;;5021756;28;20037;-73
2023/08/02 12:22:01;;;;;;;14.65;7.57;;;16.80;99.90;;;;;;5008804;28;20045;-72
2023/08/02 12:24:26;;;;;;;12.57;6.55;;;16.80;99.90;;;;;;5016347;28;20109;-72
2023/08/02 12:26:52;;;;;;;13.55;6.53;;;16.80;99.90;;;;;;5020078;28;20480;-72
2023/08/02 12:29:22;;;;;;;13.38;6.60;;;16.80;99.90;;;;;;5023168;28;20029;-73
2023/08/02 12:31:49;;;;;;;12.43;6.93;;;16.80;99.90;;;;;;5025212;28;20038;-73
2023/08/02 12:34:14;;;;;;;15.25;7.07;;;16.80;99.90;;;;;;5023436;28;20033;-72
2023/08/02 12:36:40;;;;;;;11.73;6.03;;;16.80;99.90;;;;;;5024376;28;20030;-73
2023/08/02 12:39:06;;;;;;;17.77;6.93;;;16.80;99.90;;;;;;5020171;28;20025;-73